KLM529 EETN-ENBR
Flight info
| Callsign | KLM529 |
|---|---|
| Flight time | N/A |
| Altitude | 36000 |
| Route | PETOT DCT PESUR |
| Aircraft | B738/M-SDE2E3FGHIRWXY/LB1 |
Departure
| Time | N/A |
|---|---|
| Airport | Lennart Meri Tallinn Airport (EETN) |
Arrival
| Time | 2026-05-03 20:49 |
|---|---|
| Airport | Bergen Airport, Flesland (ENBR) |
| Time | Latitude | Longitude | Altitude | Speed | Heading |
|---|---|---|---|---|---|
| 2026-05-03 20:15 | 60.25619 | 10.76136 | 35786 ft | 382 kts | 268° |
| 2026-05-03 20:15 | 60.25749 | 10.65483 | 35753 ft | 383 kts | 268° |
| 2026-05-03 20:16 | 60.25870 | 10.54804 | 35738 ft | 383 kts | 268° |
| 2026-05-03 20:16 | 60.25985 | 10.44105 | 35741 ft | 383 kts | 268° |
| 2026-05-03 20:17 | 60.26091 | 10.33373 | 35750 ft | 384 kts | 268° |
| 2026-05-03 20:17 | 60.26188 | 10.22670 | 35744 ft | 385 kts | 267° |
| 2026-05-03 20:18 | 60.26275 | 10.11944 | 35737 ft | 386 kts | 267° |
| 2026-05-03 20:18 | 60.26677 | 9.05930 | 35736 ft | 392 kts | 266° |
| 2026-05-03 20:19 | 60.26672 | 8.95130 | 35723 ft | 387 kts | 266° |
| 2026-05-03 20:19 | 60.26653 | 8.84252 | 35716 ft | 392 kts | 266° |
| 2026-05-03 20:20 | 60.26627 | 8.73258 | 35717 ft | 394 kts | 266° |
| 2026-05-03 20:20 | 60.26595 | 8.62320 | 35713 ft | 392 kts | 266° |
| 2026-05-03 20:21 | 60.26553 | 8.51408 | 35572 ft | 390 kts | 266° |
| 2026-05-03 20:21 | 60.26532 | 8.45966 | 35289 ft | 385 kts | 266° |
| 2026-05-03 20:21 | 60.26508 | 8.40639 | 34758 ft | 386 kts | 265° |
| 2026-05-03 20:21 | 60.26479 | 8.35232 | 34087 ft | 388 kts | 265° |
| 2026-05-03 20:22 | 60.26446 | 8.29838 | 33356 ft | 390 kts | 265° |
| 2026-05-03 20:22 | 60.26411 | 8.24407 | 32614 ft | 391 kts | 264° |
| 2026-05-03 20:22 | 60.26375 | 8.18994 | 31913 ft | 391 kts | 265° |
| 2026-05-03 20:22 | 60.26338 | 8.13513 | 31183 ft | 391 kts | 265° |
| 2026-05-03 20:23 | 60.26298 | 8.08081 | 30435 ft | 391 kts | 265° |
| 2026-05-03 20:23 | 60.26257 | 8.02701 | 29984 ft | 383 kts | 265° |
| 2026-05-03 20:23 | 60.26217 | 7.97433 | 29520 ft | 378 kts | 265° |
| 2026-05-03 20:23 | 60.26172 | 7.92154 | 29037 ft | 382 kts | 265° |
| 2026-05-03 20:24 | 60.26120 | 7.86759 | 28523 ft | 387 kts | 266° |
| 2026-05-03 20:24 | 60.26068 | 7.81403 | 28016 ft | 382 kts | 266° |
| 2026-05-03 20:24 | 60.26017 | 7.76115 | 27514 ft | 376 kts | 266° |
| 2026-05-03 20:24 | 60.25966 | 7.70922 | 27014 ft | 371 kts | 266° |
| 2026-05-03 20:25 | 60.25913 | 7.65787 | 26533 ft | 372 kts | 266° |
| 2026-05-03 20:25 | 60.25854 | 7.60547 | 26025 ft | 376 kts | 266° |
| 2026-05-03 20:25 | 60.25794 | 7.55335 | 25518 ft | 373 kts | 266° |
| 2026-05-03 20:25 | 60.25734 | 7.50192 | 25015 ft | 368 kts | 266° |
| 2026-05-03 20:26 | 60.25673 | 7.45088 | 24515 ft | 363 kts | 267° |
| 2026-05-03 20:26 | 60.25612 | 7.40056 | 24015 ft | 358 kts | 266° |
| 2026-05-03 20:26 | 60.25548 | 7.35146 | 23537 ft | 358 kts | 267° |
| 2026-05-03 20:26 | 60.25480 | 7.30132 | 23037 ft | 362 kts | 266° |
| 2026-05-03 20:27 | 60.25411 | 7.25105 | 22524 ft | 358 kts | 266° |
| 2026-05-03 20:27 | 60.25341 | 7.20124 | 22013 ft | 354 kts | 266° |
| 2026-05-03 20:27 | 60.25272 | 7.15253 | 21517 ft | 350 kts | 266° |
| 2026-05-03 20:27 | 60.25201 | 7.10419 | 21026 ft | 345 kts | 266° |
| 2026-05-03 20:28 | 60.25129 | 7.05603 | 20530 ft | 341 kts | 266° |
| 2026-05-03 20:28 | 60.25057 | 7.00921 | 20039 ft | 337 kts | 266° |
| 2026-05-03 20:28 | 60.24983 | 6.96239 | 19550 ft | 334 kts | 266° |
| 2026-05-03 20:28 | 60.24908 | 6.91568 | 19059 ft | 331 kts | 266° |
| 2026-05-03 20:29 | 60.24832 | 6.86974 | 18570 ft | 334 kts | 266° |
| 2026-05-03 20:29 | 60.24752 | 6.82347 | 18063 ft | 334 kts | 266° |
| 2026-05-03 20:29 | 60.24673 | 6.77727 | 17566 ft | 329 kts | 266° |
| 2026-05-03 20:29 | 60.24593 | 6.73172 | 17077 ft | 326 kts | 267° |
| 2026-05-03 20:30 | 60.24513 | 6.68639 | 16582 ft | 322 kts | 266° |
| 2026-05-03 20:30 | 60.24432 | 6.64209 | 16106 ft | 318 kts | 267° |
| 2026-05-03 20:30 | 60.24350 | 6.59817 | 15625 ft | 314 kts | 267° |
| 2026-05-03 20:30 | 60.24255 | 6.55389 | 15139 ft | 318 kts | 266° |
| 2026-05-03 20:31 | 60.24135 | 6.50947 | 14642 ft | 319 kts | 266° |
| 2026-05-03 20:31 | 60.24007 | 6.46568 | 14147 ft | 315 kts | 266° |
| 2026-05-03 20:31 | 60.23876 | 6.42186 | 13665 ft | 312 kts | 266° |
| 2026-05-03 20:31 | 60.23748 | 6.37875 | 13174 ft | 309 kts | 266° |
| 2026-05-03 20:32 | 60.23622 | 6.33632 | 12703 ft | 305 kts | 266° |
| 2026-05-03 20:32 | 60.23497 | 6.29385 | 12224 ft | 303 kts | 266° |
| 2026-05-03 20:32 | 60.23374 | 6.25217 | 11757 ft | 300 kts | 266° |
| 2026-05-03 20:32 | 60.23249 | 6.21038 | 11314 ft | 305 kts | 266° |
| 2026-05-03 20:33 | 60.23119 | 6.16769 | 10832 ft | 305 kts | 266° |
| 2026-05-03 20:33 | 60.22992 | 6.12594 | 10476 ft | 298 kts | 266° |
| 2026-05-03 20:33 | 60.22865 | 6.08516 | 10313 ft | 286 kts | 266° |
| 2026-05-03 20:33 | 60.22743 | 6.04592 | 10188 ft | 273 kts | 266° |
| 2026-05-03 20:34 | 60.22628 | 6.00915 | 10102 ft | 260 kts | 266° |
| 2026-05-03 20:34 | 60.22516 | 5.97367 | 10027 ft | 248 kts | 266° |
| 2026-05-03 20:34 | 60.22408 | 5.94015 | 9841 ft | 241 kts | 266° |
| 2026-05-03 20:34 | 60.22299 | 5.90625 | 9471 ft | 246 kts | 266° |
| 2026-05-03 20:35 | 60.22184 | 5.87201 | 9123 ft | 248 kts | 265° |
| 2026-05-03 20:35 | 60.21859 | 5.83797 | 8781 ft | 247 kts | 250° |
| 2026-05-03 20:35 | 60.21087 | 5.80775 | 8462 ft | 246 kts | 240° |
| 2026-05-03 20:35 | 60.20171 | 5.77882 | 8137 ft | 245 kts | 240° |
| 2026-05-03 20:36 | 60.19208 | 5.75125 | 7993 ft | 237 kts | 232° |
| 2026-05-03 20:36 | 60.17965 | 5.73019 | 7965 ft | 241 kts | 210° |
| 2026-05-03 20:36 | 60.16311 | 5.72241 | 7962 ft | 247 kts | 182° |
| 2026-05-03 20:36 | 60.14627 | 5.72875 | 7981 ft | 253 kts | 166° |
| 2026-05-03 20:37 | 60.12964 | 5.74048 | 7980 ft | 253 kts | 166° |
| 2026-05-03 20:37 | 60.11274 | 5.74768 | 7977 ft | 249 kts | 180° |
| 2026-05-03 20:37 | 60.09552 | 5.74789 | 7984 ft | 247 kts | 186° |
| 2026-05-03 20:37 | 60.07838 | 5.74652 | 7984 ft | 246 kts | 187° |
| 2026-05-03 20:38 | 60.06163 | 5.74156 | 7976 ft | 242 kts | 200° |
| 2026-05-03 20:38 | 60.04584 | 5.73104 | 7959 ft | 239 kts | 205° |
| 2026-05-03 20:38 | 60.03030 | 5.71914 | 7699 ft | 237 kts | 205° |
| 2026-05-03 20:38 | 60.01506 | 5.70667 | 7336 ft | 238 kts | 210° |
| 2026-05-03 20:39 | 60.00152 | 5.68910 | 6994 ft | 235 kts | 222° |
| 2026-05-03 20:39 | 59.98915 | 5.66785 | 6660 ft | 235 kts | 225° |
| 2026-05-03 20:39 | 59.97695 | 5.64629 | 6340 ft | 235 kts | 225° |
| 2026-05-03 20:39 | 59.96586 | 5.62283 | 6032 ft | 231 kts | 237° |
| 2026-05-03 20:40 | 59.95770 | 5.59533 | 5707 ft | 230 kts | 248° |
| 2026-05-03 20:40 | 59.95393 | 5.56491 | 5370 ft | 227 kts | 272° |
| 2026-05-03 20:40 | 59.95643 | 5.53450 | 5042 ft | 226 kts | 291° |
| 2026-05-03 20:40 | 59.96433 | 5.50765 | 4689 ft | 227 kts | 315° |
| 2026-05-03 20:41 | 59.97743 | 5.49053 | 4393 ft | 226 kts | 340° |
| 2026-05-03 20:41 | 59.99233 | 5.48136 | 4125 ft | 224 kts | 343° |
| 2026-05-03 20:41 | 60.00714 | 5.47267 | 3956 ft | 221 kts | 343° |
| 2026-05-03 20:41 | 60.02190 | 5.46356 | 3956 ft | 224 kts | 342° |
| 2026-05-03 20:42 | 60.03665 | 5.45427 | 3951 ft | 225 kts | 342° |
| 2026-05-03 20:42 | 60.05161 | 5.44476 | 3954 ft | 224 kts | 342° |
| 2026-05-03 20:42 | 60.06644 | 5.43542 | 3959 ft | 224 kts | 342° |
| 2026-05-03 20:42 | 60.08116 | 5.42552 | 3960 ft | 223 kts | 336° |
| 2026-05-03 20:43 | 60.09375 | 5.40872 | 3871 ft | 219 kts | 309° |
| 2026-05-03 20:43 | 60.10007 | 5.38160 | 3552 ft | 220 kts | 283° |
| 2026-05-03 20:43 | 60.10240 | 5.35110 | 3252 ft | 221 kts | 279° |
| 2026-05-03 20:43 | 60.10469 | 5.32137 | 3147 ft | 212 kts | 281° |
| 2026-05-03 20:44 | 60.10896 | 5.29382 | 2997 ft | 206 kts | 302° |
| 2026-05-03 20:44 | 60.11904 | 5.27503 | 2990 ft | 197 kts | 336° |
| 2026-05-03 20:44 | 60.13158 | 5.27008 | 2991 ft | 173 kts | 357° |
| 2026-05-03 20:44 | 60.14268 | 5.26843 | 3002 ft | 152 kts | 350° |
| 2026-05-03 20:45 | 60.15292 | 5.26506 | 2888 ft | 149 kts | 348° |
| 2026-05-03 20:45 | 60.16298 | 5.26159 | 2654 ft | 145 kts | 348° |
| 2026-05-03 20:45 | 60.17294 | 5.25829 | 2454 ft | 145 kts | 348° |
| 2026-05-03 20:45 | 60.18283 | 5.25505 | 2256 ft | 145 kts | 348° |
| 2026-05-03 20:46 | 60.19282 | 5.25161 | 2011 ft | 144 kts | 348° |
| 2026-05-03 20:46 | 60.20224 | 5.24814 | 1913 ft | 131 kts | 348° |
| 2026-05-03 20:46 | 60.21149 | 5.24522 | 1494 ft | 133 kts | 350° |
| 2026-05-03 20:46 | 60.22062 | 5.24227 | 1480 ft | 133 kts | 348° |
| 2026-05-03 20:47 | 60.22978 | 5.23911 | 1271 ft | 139 kts | 349° |
| 2026-05-03 20:47 | 60.23917 | 5.23621 | 1128 ft | 138 kts | 350° |
| 2026-05-03 20:47 | 60.24898 | 5.23323 | 858 ft | 143 kts | 349° |
| 2026-05-03 20:47 | 60.25859 | 5.22991 | 649 ft | 138 kts | 347° |
| 2026-05-03 20:48 | 60.26778 | 5.22665 | 488 ft | 135 kts | 349° |
| 2026-05-03 20:48 | 60.27713 | 5.22373 | 318 ft | 134 kts | 348° |
| 2026-05-03 20:48 | 60.28604 | 5.22051 | 158 ft | 119 kts | 347° |
| 2026-05-03 20:48 | 60.29207 | 5.21851 | 158 ft | 55 kts | 350° |
| 2026-05-03 20:49 | 60.29382 | 5.21947 | 154 ft | 21 kts | 86° |
| 2026-05-03 20:49 | 60.29398 | 5.22132 | 157 ft | 11 kts | 80° |
| 2026-05-03 20:49 | 60.29375 | 5.22236 | 161 ft | 6 kts | 150° |
| 2026-05-03 20:49 | 60.29293 | 5.22281 | 165 ft | 14 kts | 169° |
| 2026-05-03 20:50 | 60.29200 | 5.22308 | 168 ft | 12 kts | 172° |
| 2026-05-03 20:50 | 60.29094 | 5.22342 | 170 ft | 15 kts | 169° |
| 2026-05-03 20:50 | 60.29034 | 5.22466 | 172 ft | 13 kts | 82° |
| 2026-05-03 20:50 | 60.29044 | 5.22595 | 175 ft | 5 kts | 81° |
| 2026-05-03 20:51 | 60.29044 | 5.22664 | 176 ft | 6 kts | 95° |
| 2026-05-03 20:51 | 60.29040 | 5.22707 | 177 ft | 0 kts | 127° |
| 2026-05-03 20:51 | 60.29033 | 5.22716 | 177 ft | 0 kts | 157° |
| 2026-05-03 20:51 | 60.29030 | 5.22718 | 177 ft | 0 kts | 159° |
| 2026-05-03 20:52 | 60.29027 | 5.22720 | 177 ft | 1 kts | 159° |
| 2026-05-03 20:52 | 60.29011 | 5.22725 | 177 ft | 0 kts | 179° |
| 2026-05-03 20:52 | 60.28994 | 5.22724 | 178 ft | 0 kts | 181° |